Canadian, Texas
Current Conditions -  °F | °C
As of 10:15 AM on Thursday 29 Jan 2015 (Local Time) from KHHF Reporting Station
Clear Clear  
Wind Chill: 37°   Ceiling: Unl
Heat Index: 45°   Visibility: 10mi
Dew Point: 34°   Wind: 16mph
Humidity: 66%   Direction: 10°N
Pressure: 30.49"   Gusts: NA
Location:  35.91°N, 100.38°W
Report Text: KHHF 291615Z AUTO 01014KT 10SM CLR 07/01 A3049 RMK AO2 T00700010
Loading
Personal Weather Stations






























Interactive Weather Map New forecast layout! Learn more

10-Day Weather Forecast

Advertisements
Track Severe Weather on mobile